Time;durP1;ratioP1;P1;durP2;ratioP2;P2;SDS_P1;SDS_P2;PMS_P1;PMS_P2;Temp;Humidity;BMP_temperature;BMP_pressure;BME280_temperature;BME280_humidity;BME280_pressure;Samples;Min_cycle;Max_cycle;Signal;HPM_P1;HPM_P2
2022/05/10 00:00:06;;;;;;;19.42;12.07;;;14.40;99.90;;;;;;5033414;28;20516;-74
2022/05/10 00:02:34;;;;;;;23.38;12.40;;;14.40;99.90;;;;;;5034181;28;20071;-74
2022/05/10 00:05:00;;;;;;;28.30;12.05;;;14.40;99.90;;;;;;5032393;28;20190;-73
2022/05/10 00:07:30;;;;;;;23.30;12.63;;;14.40;99.90;;;;;;5032795;28;20063;-74
2022/05/10 00:09:56;;;;;;;23.50;12.10;;;14.40;99.90;;;;;;5033484;28;20063;-73
2022/05/10 00:12:23;;;;;;;23.67;13.75;;;14.40;99.90;;;;;;5028707;28;20410;-74
2022/05/10 00:14:50;;;;;;;20.55;11.77;;;14.40;99.90;;;;;;5015010;28;20717;-74
2022/05/10 00:17:25;;;;;;;26.42;14.25;;;14.40;99.90;;;;;;5028353;28;20074;-74
2022/05/10 00:19:52;;;;;;;18.88;12.68;;;14.40;99.90;;;;;;5032900;28;20077;-74
2022/05/10 00:22:18;;;;;;;18.77;12.90;;;14.40;99.90;;;;;;5023682;28;20473;-74
2022/05/10 00:24:43;;;;;;;19.52;10.93;;;14.40;99.90;;;;;;5032508;28;20084;-74
2022/05/10 00:27:10;;;;;;;25.27;11.57;;;14.40;99.90;;;;;;5031527;28;20055;-74
2022/05/10 00:29:35;;;;;;;19.52;13.13;;;14.30;99.90;;;;;;5033688;28;20540;-74
2022/05/10 00:32:01;;;;;;;14.40;10.68;;;14.30;99.90;;;;;;5032980;28;20037;-74
2022/05/10 00:34:29;;;;;;;19.88;10.73;;;14.30;99.90;;;;;;5032048;28;20061;-74
2022/05/10 00:36:56;;;;;;;18.90;10.98;;;14.20;99.90;;;;;;5031573;28;20074;-74
2022/05/10 00:39:22;;;;;;;20.08;12.45;;;14.20;99.90;;;;;;5033007;28;20049;-73
2022/05/10 00:42:20;;;;;;;22.63;13.20;;;14.20;99.90;;;;;;5032203;28;20049;-74
2022/05/10 00:44:59;;;;;;;16.17;12.48;;;14.10;99.90;;;;;;5031676;28;20045;-74
2022/05/10 00:47:34;;;;;;;20.60;11.60;;;14.00;99.90;;;;;;5032297;28;20049;-74
2022/05/10 00:50:08;;;;;;;18.10;12.55;;;14.00;99.90;;;;;;5031877;28;20083;-73
2022/05/10 00:52:51;;;;;;;21.60;11.43;;;14.00;99.90;;;;;;5031695;28;20052;-74
2022/05/10 00:55:39;;;;;;;24.30;12.68;;;13.90;99.90;;;;;;5014442;28;20085;-74
2022/05/10 00:58:12;;;;;;;22.83;14.25;;;13.90;99.90;;;;;;5028393;28;20052;-74
2022/05/10 01:00:39;;;;;;;16.83;11.98;;;13.90;99.90;;;;;;5021780;28;20402;-74
2022/05/10 01:03:13;;;;;;;20.17;12.35;;;13.80;99.90;;;;;;5026071;28;20046;-74
2022/05/10 01:05:51;;;;;;;16.70;11.02;;;13.80;99.90;;;;;;5022809;28;20053;-74
2022/05/10 01:08:26;;;;;;;26.13;14.73;;;13.80;99.90;;;;;;5017137;28;20060;-74
2022/05/10 01:10:56;;;;;;;18.52;12.77;;;13.70;99.90;;;;;;5013258;28;20044;-74
2022/05/10 01:13:37;;;;;;;13.68;11.38;;;13.60;99.90;;;;;;5031566;28;20645;-74
2022/05/10 01:16:23;;;;;;;28.23;12.55;;;13.60;99.90;;;;;;5030666;28;20102;-74
2022/05/10 01:18:51;;;;;;;21.60;12.77;;;13.60;99.90;;;;;;5049974;28;20092;-75
2022/05/10 01:21:44;;;;;;;13.57;10.32;;;13.50;99.90;;;;;;5047712;28;20049;-74
2022/05/10 01:24:26;;;;;;;18.45;11.98;;;13.50;99.90;;;;;;5027920;28;20052;-73
2022/05/10 01:27:09;;;;;;;19.80;11.85;;;13.40;99.90;;;;;;5027820;28;20041;-73
2022/05/10 01:29:57;;;;;;;18.67;12.40;;;13.30;99.90;;;;;;5029996;28;20106;-73
2022/05/10 01:35:16;;;;;;;19.40;11.75;;;13.30;99.90;;;;;;5015313;28;19976;-74
2022/05/10 01:37:47;;;;;;;19.90;11.45;;;13.30;99.90;;;;;;5048300;28;20037;-73
2022/05/10 01:40:35;;;;;;;22.23;11.45;;;13.20;99.90;;;;;;5031208;28;20048;-73
2022/05/10 01:43:24;;;;;;;18.80;10.63;;;13.30;99.90;;;;;;5030618;28;20418;-73
2022/05/10 01:45:57;;;;;;;20.80;12.27;;;13.30;99.90;;;;;;5049076;28;20437;-73
2022/05/10 01:48:23;;;;;;;19.83;13.63;;;13.20;99.90;;;;;;5047363;28;20037;-73
2022/05/10 01:51:15;;;;;;;19.13;13.18;;;13.20;99.90;;;;;;5031656;28;20052;-73
2022/05/10 01:53:42;;;;;;;31.15;16.20;;;13.20;99.90;;;;;;5019903;28;20049;-74
2022/05/10 01:56:16;;;;;;;28.38;15.40;;;13.20;99.90;;;;;;5031185;28;20542;-73
2022/05/10 01:58:44;;;;;;;27.90;16.80;;;13.20;99.90;;;;;;5043817;28;20447;-74
2022/05/10 02:01:25;;;;;;;38.35;16.70;;;13.20;99.90;;;;;;5022727;28;20053;-73
2022/05/10 02:04:05;;;;;;;25.98;15.60;;;13.20;99.90;;;;;;5024107;28;20045;-74
2022/05/10 02:06:51;;;;;;;31.02;17.50;;;13.10;99.90;;;;;;5010895;28;20049;-73
2022/05/10 02:09:21;;;;;;;27.35;17.75;;;13.10;99.90;;;;;;5025147;28;20091;-73
2022/05/10 02:11:52;;;;;;;23.42;16.60;;;13.10;99.90;;;;;;5030670;28;20052;-73
2022/05/10 02:14:40;;;;;;;33.28;19.30;;;13.10;99.90;;;;;;5030591;28;20118;-73
2022/05/10 02:17:12;;;;;;;28.00;18.77;;;13.10;99.90;;;;;;5028663;28;20045;-73
2022/05/10 02:20:15;;;;;;;28.48;19.10;;;13.10;99.90;;;;;;5011937;28;20415;-73
2022/05/10 02:22:58;;;;;;;28.70;18.88;;;13.10;99.90;;;;;;5029689;28;20068;-73
2022/05/10 02:25:29;;;;;;;26.20;19.73;;;13.10;99.90;;;;;;5030185;28;20049;-73
2022/05/10 02:28:04;;;;;;;32.50;21.48;;;13.10;99.90;;;;;;5030272;28;20056;-73
2022/05/10 02:30:34;;;;;;;41.85;20.45;;;13.10;99.90;;;;;;5029146;28;20040;-73
2022/05/10 02:33:06;;;;;;;29.25;19.70;;;13.20;99.90;;;;;;5029796;28;20065;-73
2022/05/10 02:35:51;;;;;;;37.83;22.95;;;13.20;99.90;;;;;;5030509;28;20500;-72
2022/05/10 02:38:21;;;;;;;28.55;21.15;;;13.20;99.90;;;;;;5010353;28;20049;-72
2022/05/10 02:40:47;;;;;;;36.50;23.98;;;13.20;99.90;;;;;;5022474;28;20048;-73
2022/05/10 02:43:17;;;;;;;31.25;21.55;;;13.20;99.90;;;;;;5030672;28;20056;-72
2022/05/10 02:45:43;;;;;;;29.75;21.40;;;13.30;99.90;;;;;;5030189;28;20502;-73
2022/05/10 02:48:14;;;;;;;52.25;24.75;;;13.30;99.90;;;;;;5033957;28;20037;-73
2022/05/10 02:50:40;;;;;;;35.55;23.52;;;13.30;99.90;;;;;;5026281;28;20535;-73
2022/05/10 02:53:06;;;;;;;38.17;23.23;;;13.30;99.90;;;;;;5032798;28;20497;-73
2022/05/10 02:55:57;;;;;;;28.17;23.15;;;13.30;99.90;;;;;;5032778;28;20071;-73
2022/05/10 02:58:35;;;;;;;40.70;24.48;;;13.40;99.90;;;;;;5026687;28;20053;-72
2022/05/10 03:01:37;;;;;;;31.98;23.05;;;13.30;99.90;;;;;;5022248;28;20074;-72
2022/05/10 03:04:04;;;;;;;45.75;25.38;;;13.30;99.90;;;;;;5028398;28;20055;-70
2022/05/10 03:06:30;;;;;;;33.45;25.52;;;13.30;99.90;;;;;;5033369;28;20568;-73
2022/05/10 03:08:58;;;;;;;39.75;25.30;;;13.30;99.90;;;;;;5033026;28;20056;-72
2022/05/10 03:11:24;;;;;;;41.60;25.45;;;13.30;99.90;;;;;;5042223;28;20053;-72
2022/05/10 03:13:51;;;;;;;36.38;26.50;;;13.40;99.90;;;;;;5044720;28;20136;-72
2022/05/10 03:16:18;;;;;;;39.22;25.67;;;13.40;99.90;;;;;;5047488;28;20039;-73
2022/05/10 03:18:45;;;;;;;40.38;26.90;;;13.50;99.90;;;;;;5032259;28;20102;-73
2022/05/10 03:21:11;;;;;;;35.55;26.13;;;13.50;99.90;;;;;;5032485;28;20479;-73
2022/05/10 03:23:37;;;;;;;35.17;25.63;;;13.50;99.90;;;;;;5023094;28;20190;-72
2022/05/10 03:26:04;;;;;;;38.42;26.95;;;13.50;99.90;;;;;;5040132;28;20049;-72
2022/05/10 03:28:29;;;;;;;38.90;25.40;;;13.50;99.90;;;;;;5031433;28;20841;-73
2022/05/10 03:30:55;;;;;;;43.60;27.92;;;13.50;99.90;;;;;;5031573;28;20052;-72
2022/05/10 03:33:21;;;;;;;44.67;26.00;;;13.50;99.90;;;;;;5050776;28;20049;-72
2022/05/10 03:35:49;;;;;;;32.72;26.58;;;13.50;99.90;;;;;;5031184;28;20064;-72
2022/05/10 03:38:14;;;;;;;43.20;27.08;;;13.50;99.90;;;;;;5033681;28;20088;-72
2022/05/10 03:40:40;;;;;;;42.42;28.08;;;13.50;99.90;;;;;;5045562;28;20512;-72
2022/05/10 03:43:08;;;;;;;38.20;26.17;;;13.60;99.90;;;;;;5040283;28;20094;-72
2022/05/10 03:45:35;;;;;;;42.65;25.20;;;13.60;99.90;;;;;;5035281;28;20068;-73
2022/05/10 03:48:00;;;;;;;39.17;26.17;;;13.60;99.90;;;;;;5035825;28;20049;-72
2022/05/10 03:50:26;;;;;;;37.15;25.55;;;13.60;99.90;;;;;;5021734;28;20131;-73
2022/05/10 03:52:52;;;;;;;39.08;26.05;;;13.60;99.90;;;;;;5032266;28;20715;-73
2022/05/10 03:55:22;;;;;;;35.08;26.65;;;13.50;99.90;;;;;;5050441;28;20041;-72
2022/05/10 03:57:48;;;;;;;36.95;25.20;;;13.60;99.90;;;;;;5032932;28;20060;-72
2022/05/10 04:00:18;;;;;;;52.70;30.15;;;13.60;99.90;;;;;;5019219;28;20398;-73
2022/05/10 04:02:44;;;;;;;44.30;28.45;;;13.60;99.90;;;;;;5032001;28;20041;-73
2022/05/10 04:05:12;;;;;;;44.80;28.75;;;13.60;99.90;;;;;;5048362;28;20048;-73
2022/05/10 04:07:37;;;;;;;38.92;27.50;;;13.60;99.90;;;;;;5032678;28;20055;-73
2022/05/10 04:10:05;;;;;;;38.00;26.63;;;13.50;99.90;;;;;;5030943;28;20045;-73
2022/05/10 04:12:32;;;;;;;37.70;26.52;;;13.50;99.90;;;;;;5049091;28;20596;-73
2022/05/10 04:14:57;;;;;;;38.10;27.48;;;13.50;99.90;;;;;;5046217;28;20057;-73
2022/05/10 04:17:23;;;;;;;32.00;23.13;;;13.50;99.90;;;;;;5012455;28;20041;-73
2022/05/10 04:19:49;;;;;;;41.92;28.75;;;13.50;99.90;;;;;;5013749;28;20081;-73
2022/05/10 04:22:16;;;;;;;35.45;26.10;;;13.50;99.90;;;;;;5031694;28;20041;-73
2022/05/10 04:24:42;;;;;;;35.53;24.40;;;13.50;99.90;;;;;;5015328;28;20045;-73
2022/05/10 04:27:07;;;;;;;40.63;27.45;;;13.50;99.90;;;;;;5031029;28;20402;-73
2022/05/10 04:29:33;;;;;;;38.90;25.70;;;13.50;99.90;;;;;;5030988;28;20037;-73
2022/05/10 04:31:59;;;;;;;40.03;29.02;;;13.50;99.90;;;;;;5031276;28;20060;-73
2022/05/10 04:34:25;;;;;;;38.67;28.90;;;13.50;99.90;;;;;;5031553;28;20060;-73
2022/05/10 04:36:50;;;;;;;39.45;27.67;;;13.50;99.90;;;;;;5031434;28;20907;-73
2022/05/10 04:39:16;;;;;;;40.72;27.85;;;13.50;99.90;;;;;;5049476;28;20052;-73
2022/05/10 04:41:48;;;;;;;36.85;26.42;;;13.50;99.90;;;;;;5041941;28;20394;-73
2022/05/10 04:44:14;;;;;;;37.53;27.60;;;13.50;99.90;;;;;;5048651;28;20058;-73
2022/05/10 04:46:41;;;;;;;41.40;27.98;;;13.50;99.90;;;;;;5015030;28;20041;-73
2022/05/10 04:49:10;;;;;;;43.30;27.15;;;13.50;99.90;;;;;;5031498;28;20498;-73
2022/05/10 04:51:36;;;;;;;31.00;24.25;;;13.50;99.90;;;;;;5031179;28;20079;-73
2022/05/10 04:54:02;;;;;;;38.13;27.23;;;13.60;99.90;;;;;;5026676;28;20069;-74
2022/05/10 04:56:28;;;;;;;42.95;28.42;;;13.50;99.90;;;;;;5022921;28;20049;-74
2022/05/10 04:58:56;;;;;;;40.38;27.48;;;13.60;99.90;;;;;;5012829;28;20079;-73
2022/05/10 05:01:28;;;;;;;39.90;27.02;;;13.60;99.90;;;;;;5030113;28;20445;-73
2022/05/10 05:03:59;;;;;;;40.05;26.95;;;13.60;99.90;;;;;;5031437;28;20067;-73
2022/05/10 05:06:26;;;;;;;44.25;26.80;;;13.70;99.90;;;;;;5031082;28;20049;-73
2022/05/10 05:08:52;;;;;;;41.13;27.50;;;13.70;99.90;;;;;;5030120;28;20084;-73
2022/05/10 05:11:18;;;;;;;36.83;29.65;;;13.70;99.90;;;;;;5038782;28;20616;-74
2022/05/10 05:13:44;;;;;;;33.45;25.85;;;13.80;99.90;;;;;;5046202;28;20128;-73
2022/05/10 05:16:09;;;;;;;43.75;30.05;;;13.80;99.90;;;;;;5031410;28;20055;-73
2022/05/10 05:18:35;;;;;;;37.03;29.42;;;13.80;99.90;;;;;;5030736;28;20049;-74
2022/05/10 05:21:01;;;;;;;43.13;31.85;;;13.90;99.90;;;;;;5031116;28;20060;-74
2022/05/10 05:23:27;;;;;;;46.03;31.10;;;13.90;99.90;;;;;;5030115;28;20128;-74
2022/05/10 05:25:53;;;;;;;42.47;29.92;;;13.90;99.90;;;;;;5029639;28;20059;-73
2022/05/10 05:28:19;;;;;;;46.95;29.98;;;13.90;99.90;;;;;;5030460;28;20124;-73
2022/05/10 05:30:45;;;;;;;48.13;30.42;;;14.00;99.90;;;;;;5029298;28;20152;-73
2022/05/10 05:33:12;;;;;;;47.10;30.83;;;14.00;99.90;;;;;;5048480;28;20053;-73
2022/05/10 05:35:38;;;;;;;42.35;31.52;;;14.10;99.90;;;;;;5021257;28;20061;-72
2022/05/10 05:38:04;;;;;;;34.08;28.25;;;14.10;99.90;;;;;;5011332;28;20124;-73
2022/05/10 05:40:30;;;;;;;40.08;30.08;;;14.10;99.90;;;;;;5018739;28;20116;-73
2022/05/10 05:42:55;;;;;;;46.20;30.02;;;14.10;99.90;;;;;;5030589;28;20513;-72
2022/05/10 05:45:23;;;;;;;49.65;32.40;;;14.20;99.90;;;;;;5029115;28;20037;-74
2022/05/10 05:47:50;;;;;;;38.28;29.23;;;14.30;99.90;;;;;;5027753;28;20036;-73
2022/05/10 05:50:19;;;;;;;41.53;29.98;;;14.30;99.90;;;;;;5046390;28;20048;-73
2022/05/10 05:52:45;;;;;;;38.78;30.27;;;14.40;99.90;;;;;;5030457;28;20045;-73
2022/05/10 05:55:12;;;;;;;36.65;28.52;;;14.50;99.90;;;;;;5029705;28;20127;-73
2022/05/10 05:57:39;;;;;;;41.25;29.10;;;14.50;99.90;;;;;;5029496;28;20064;-74
2022/05/10 06:00:08;;;;;;;42.53;29.95;;;14.60;99.90;;;;;;5030340;28;20049;-72
2022/05/10 06:03:03;;;;;;;39.60;28.38;;;14.70;99.90;;;;;;5033671;28;20493;-73
2022/05/10 06:05:31;;;;;;;38.28;26.67;;;14.80;99.90;;;;;;5032870;28;20506;-71
2022/05/10 06:07:56;;;;;;;38.63;27.13;;;14.80;99.90;;;;;;5029287;28;20540;-72
2022/05/10 06:10:22;;;;;;;45.90;26.60;;;14.90;99.90;;;;;;5013531;28;20049;-72
2022/05/10 06:12:48;;;;;;;36.88;25.65;;;15.00;99.90;;;;;;5029133;28;20053;-73
2022/05/10 06:15:16;;;;;;;34.65;25.65;;;15.10;99.90;;;;;;5030101;28;20099;-73
2022/05/10 06:17:43;;;;;;;43.25;24.35;;;15.20;99.90;;;;;;5029916;28;20053;-73
2022/05/10 06:20:12;;;;;;;34.33;24.55;;;15.30;99.90;;;;;;5029856;28;20079;-72
2022/05/10 06:22:37;;;;;;;;;;;15.30;99.90;;;;;;5047612;28;20057;-72
2022/05/10 06:25:04;;;;;;;34.78;24.50;;;15.50;99.90;;;;;;5029875;28;19921;-72
2022/05/10 06:27:29;;;;;;;35.58;23.27;;;15.50;99.90;;;;;;5029267;28;20413;-72
2022/05/10 06:29:55;;;;;;;36.63;25.20;;;15.60;99.90;;;;;;5046427;28;20045;-73
2022/05/10 06:32:24;;;;;;;34.33;23.80;;;15.80;99.90;;;;;;5029442;28;20076;-74
2022/05/10 06:34:50;;;;;;;31.55;22.08;;;15.90;99.90;;;;;;5040453;28;20124;-73
2022/05/10 06:40:13;;;;;;;33.38;22.50;;;16.20;99.90;;;;;;5030428;28;20057;-73
2022/05/10 06:42:40;;;;;;;26.23;20.13;;;16.30;99.90;;;;;;5050741;28;20120;-72
2022/05/10 06:45:10;;;;;;;31.33;21.92;;;16.50;99.90;;;;;;5027252;28;20078;-73
2022/05/10 06:47:37;;;;;;;26.77;20.38;;;16.70;99.90;;;;;;5029403;28;20452;-73
2022/05/10 06:50:04;;;;;;;26.30;19.60;;;17.00;99.90;;;;;;5046012;28;20056;-74
2022/05/10 06:52:30;;;;;;;28.90;20.27;;;17.20;99.90;;;;;;5046965;28;20036;-72
2022/05/10 06:54:56;;;;;;;29.42;18.88;;;17.40;99.90;;;;;;5030171;28;20249;-72
2022/05/10 06:57:22;;;;;;;36.78;20.92;;;17.70;99.90;;;;;;5047780;28;20059;-74
2022/05/10 06:59:47;;;;;;;23.20;17.15;;;17.80;99.90;;;;;;5047903;28;20410;-73
2022/05/10 07:02:13;;;;;;;24.15;15.70;;;17.90;99.90;;;;;;5047510;28;20056;-72
2022/05/10 07:04:39;;;;;;;28.92;16.55;;;18.00;99.90;;;;;;5029030;28;20398;-72
2022/05/10 07:07:05;;;;;;;25.38;16.00;;;18.10;99.90;;;;;;5047612;28;20049;-72
2022/05/10 07:09:30;;;;;;;21.25;15.00;;;18.20;99.90;;;;;;5047783;28;20502;-73
2022/05/10 07:11:57;;;;;;;22.67;16.10;;;18.20;99.90;;;;;;5043318;28;20165;-74
2022/05/10 07:14:23;;;;;;;25.40;16.67;;;18.40;99.90;;;;;;5038872;28;20120;-73
2022/05/10 07:16:50;;;;;;;27.65;16.25;;;18.50;99.90;;;;;;5039750;28;20090;-72
2022/05/10 07:19:16;;;;;;;27.83;17.80;;;18.70;99.90;;;;;;5042984;28;20379;-73
2022/05/10 07:21:41;;;;;;;26.25;15.75;;;19.00;99.90;;;;;;5033511;28;20049;-73
2022/05/10 07:24:07;;;;;;;21.75;17.08;;;19.10;99.90;;;;;;5027633;28;20045;-73
2022/05/10 07:26:33;;;;;;;33.35;18.15;;;19.30;98.50;;;;;;5026911;28;20049;-72
2022/05/10 07:28:59;;;;;;;29.55;18.13;;;19.60;95.50;;;;;;5012236;28;20060;-72
2022/05/10 07:31:24;;;;;;;18.02;14.70;;;19.90;93.50;;;;;;5047028;28;20044;-72
2022/05/10 07:33:50;;;;;;;36.90;16.48;;;20.00;92.80;;;;;;5050723;28;20190;-72
2022/05/10 07:36:25;;;;;;;27.75;15.55;;;20.10;91.20;;;;;;5049783;28;20052;-71
2022/05/10 07:38:51;;;;;;;28.35;17.10;;;20.30;89.00;;;;;;5050685;28;20084;-73
2022/05/10 07:41:21;;;;;;;26.55;15.82;;;20.50;84.70;;;;;;5027358;28;20079;-72
2022/05/10 07:43:48;;;;;;;26.52;16.95;;;20.70;82.00;;;;;;5053135;28;20076;-73
2022/05/10 07:46:14;;;;;;;27.93;17.07;;;21.00;78.40;;;;;;5052734;28;20719;-71
2022/05/10 07:48:40;;;;;;;21.90;17.15;;;21.10;78.30;;;;;;5037287;28;20076;-72
2022/05/10 07:51:06;;;;;;;22.42;16.20;;;21.10;75.30;;;;;;5030972;28;20044;-72
2022/05/10 07:53:32;;;;;;;20.52;14.40;;;21.10;75.10;;;;;;5050755;28;20072;-72
2022/05/10 07:55:59;;;;;;;23.55;14.88;;;21.30;76.40;;;;;;5050511;28;20405;-72
2022/05/10 07:58:24;;;;;;;26.15;16.88;;;21.60;75.40;;;;;;5050698;28;20049;-72
2022/05/10 08:00:50;;;;;;;29.65;17.20;;;21.70;73.00;;;;;;5031465;28;20521;-71
2022/05/10 08:03:21;;;;;;;24.92;17.73;;;21.90;71.40;;;;;;5032579;28;20077;-72
2022/05/10 08:05:47;;;;;;;35.72;20.27;;;22.10;69.20;;;;;;5032329;28;20049;-71
2022/05/10 08:08:13;;;;;;;25.88;18.48;;;22.20;66.90;;;;;;5016045;28;20098;-72
2022/05/10 08:10:42;;;;;;;33.10;17.83;;;22.30;67.00;;;;;;5050797;28;20039;-72
2022/05/10 08:13:16;;;;;;;27.67;18.65;;;22.60;66.60;;;;;;5050125;28;20074;-73
2022/05/10 08:15:42;;;;;;;28.25;18.15;;;22.60;64.20;;;;;;5049049;28;20053;-74
2022/05/10 08:18:09;;;;;;;23.75;15.50;;;22.60;64.10;;;;;;5032182;28;20045;-72
2022/05/10 08:20:43;;;;;;;21.48;16.05;;;22.80;64.50;;;;;;5050284;28;20041;-72
2022/05/10 08:23:21;;;;;;;22.23;14.85;;;23.00;62.90;;;;;;5053121;28;20053;-72
2022/05/10 08:25:51;;;;;;;23.05;14.95;;;23.10;62.40;;;;;;5035677;28;20045;-72
2022/05/10 08:28:17;;;;;;;21.02;16.02;;;23.30;62.90;;;;;;5030636;28;20124;-72
2022/05/10 08:30:46;;;;;;;27.83;15.52;;;23.40;60.90;;;;;;5029284;28;20140;-70
2022/05/10 08:33:37;;;;;;;40.53;14.80;;;23.40;59.90;;;;;;5045409;28;20576;-71
2022/05/10 08:36:03;;;;;;;27.23;15.70;;;23.40;58.20;;;;;;5045774;28;20059;-69
2022/05/10 08:38:30;;;;;;;21.80;15.50;;;23.60;58.60;;;;;;5047830;28;20077;-73
2022/05/10 08:41:11;;;;;;;29.67;15.30;;;23.50;58.60;;;;;;5057815;28;20098;-71
2022/05/10 08:44:17;;;;;;;26.73;15.10;;;23.50;58.80;;;;;;5022170;28;20068;-71
2022/05/10 08:46:56;;;;;;;24.63;14.75;;;23.40;56.90;;;;;;4948487;29;20051;-72
2022/05/10 08:49:54;;;;;;;25.75;14.20;;;23.30;58.60;;;;;;4947606;29;20094;-73
2022/05/10 08:52:30;;;;;;;21.88;14.80;;;23.20;58.00;;;;;;5018579;28;20071;-73
2022/05/10 08:54:56;;;;;;;19.90;13.77;;;23.10;58.50;;;;;;5030453;28;20040;-74
2022/05/10 08:57:41;;;;;;;25.88;14.90;;;23.00;59.00;;;;;;5049194;28;20057;-74
2022/05/10 09:00:10;;;;;;;18.25;13.38;;;22.90;57.70;;;;;;5043983;28;20150;-73
2022/05/10 09:02:51;;;;;;;19.42;14.35;;;22.90;58.90;;;;;;5021781;28;20080;-73
2022/05/10 09:05:38;;;;;;;28.33;14.93;;;22.80;58.70;;;;;;5044858;28;20065;-71
2022/05/10 09:08:29;;;;;;;23.08;14.10;;;22.80;59.20;;;;;;5049211;28;20562;-74
2022/05/10 09:10:59;;;;;;;29.50;14.25;;;22.70;59.40;;;;;;5035950;28;20064;-72
2022/05/10 09:13:25;;;;;;;25.02;16.35;;;22.60;59.20;;;;;;5047058;28;20053;-73
2022/05/10 09:15:58;;;;;;;22.38;15.10;;;22.60;59.60;;;;;;5031688;28;20049;-73
2022/05/10 09:18:26;;;;;;;30.27;13.23;;;22.60;59.50;;;;;;5031157;28;20049;-75
2022/05/10 09:21:18;;;;;;;18.00;13.88;;;22.60;60.00;;;;;;5047717;28;20126;-72
2022/05/10 09:23:52;;;;;;;23.48;15.00;;;22.60;59.80;;;;;;5029090;28;20553;-74
2022/05/10 09:26:23;;;;;;;20.63;14.77;;;22.60;59.60;;;;;;5021717;28;20126;-73
2022/05/10 09:28:58;;;;;;;33.53;15.80;;;22.60;59.80;;;;;;5031515;28;20120;-74
2022/05/10 09:37:22;;;;;;;22.63;16.25;;;22.60;61.70;;;;;;5031110;28;20060;-73
2022/05/10 09:39:57;;;;;;;18.45;14.88;;;22.60;60.80;;;;;;5048608;28;20063;-73
2022/05/10 09:42:30;;;;;;;27.25;17.25;;;22.60;61.60;;;;;;5030770;28;20076;-74
2022/05/10 09:45:04;;;;;;;23.27;16.48;;;22.60;61.40;;;;;;5048355;28;20056;-74
2022/05/10 09:47:30;;;;;;;26.88;17.02;;;22.60;61.80;;;;;;5049155;28;20048;-76
2022/05/10 09:50:17;;;;;;;32.03;16.13;;;22.50;61.90;;;;;;5048537;28;20045;-73
2022/05/10 09:52:44;;;;;;;34.63;18.10;;;22.50;62.30;;;;;;5031397;28;20041;-73
2022/05/10 09:55:27;;;;;;;21.27;16.55;;;22.50;62.40;;;;;;5048568;28;20047;-72
2022/05/10 09:57:55;;;;;;;33.33;17.27;;;22.40;62.50;;;;;;5048491;28;20071;-73
2022/05/10 10:00:43;;;;;;;31.67;16.25;;;22.40;62.80;;;;;;5031495;28;20128;-73
2022/05/10 10:03:09;;;;;;;28.25;17.80;;;22.50;62.80;;;;;;5030252;28;20056;-73
2022/05/10 10:05:37;;;;;;;25.23;15.95;;;22.60;62.60;;;;;;5029652;28;20461;-74
2022/05/10 10:08:03;;;;;;;30.17;16.80;;;22.70;62.50;;;;;;5031053;28;20044;-74
2022/05/10 10:10:36;;;;;;;20.58;16.73;;;22.80;62.70;;;;;;5031858;28;20098;-74
2022/05/10 10:13:26;;;;;;;27.30;18.85;;;22.90;62.40;;;;;;5048063;28;20092;-74
2022/05/10 10:15:52;;;;;;;19.95;16.00;;;23.00;61.80;;;;;;5043434;28;20523;-71
2022/05/10 10:18:39;;;;;;;28.65;16.02;;;23.00;62.00;;;;;;5016276;28;20123;-74
2022/05/10 10:21:09;;;;;;;25.10;15.65;;;23.10;60.80;;;;;;5048052;28;20045;-72
2022/05/10 10:23:38;;;;;;;16.45;14.20;;;23.10;60.80;;;;;;5047907;28;20207;-72
2022/05/10 10:26:42;;;;;;;19.58;14.18;;;23.20;60.80;;;;;;5029345;28;20057;-72
2022/05/10 10:29:16;;;;;;;17.98;13.30;;;23.40;59.80;;;;;;4989387;28;20528;-72
2022/05/10 10:31:52;;;;;;;15.45;13.77;;;23.50;59.70;;;;;;5028620;28;20049;-72
2022/05/10 10:34:42;;;;;;;17.20;13.02;;;23.70;59.40;;;;;;5034371;28;20083;-73
2022/05/10 10:37:14;;;;;;;17.35;14.60;;;23.80;58.90;;;;;;5041191;28;20052;-71
2022/05/10 10:40:04;;;;;;;19.13;14.60;;;23.90;59.00;;;;;;5025404;28;20049;-72
2022/05/10 10:42:34;;;;;;;21.85;14.38;;;23.90;58.20;;;;;;5035438;28;20041;-71
2022/05/10 10:45:02;;;;;;;19.48;13.82;;;24.00;58.40;;;;;;5013051;28;20080;-73
2022/05/10 10:47:46;;;;;;;14.80;13.27;;;24.10;58.00;;;;;;5015809;28;20179;-73
2022/05/10 10:50:30;;;;;;;20.42;14.35;;;24.20;57.60;;;;;;5035042;28;20418;-72
2022/05/10 10:52:58;;;;;;;17.40;14.90;;;24.20;57.10;;;;;;5047517;28;20079;-72
2022/05/10 10:55:47;;;;;;;34.30;14.23;;;24.20;57.60;;;;;;5047500;28;20497;-72
2022/05/10 10:58:47;;;;;;;27.20;13.63;;;24.40;57.20;;;;;;5012669;28;20044;-72
2022/05/10 11:01:28;;;;;;;21.65;14.52;;;24.40;57.10;;;;;;4979837;28;20564;-72
2022/05/10 11:04:20;;;;;;;18.38;15.15;;;24.40;57.10;;;;;;5029894;28;20470;-74
2022/05/10 11:06:54;;;;;;;22.75;16.23;;;24.30;56.40;;;;;;5030129;28;20040;-71
2022/05/10 11:09:40;;;;;;;21.52;15.75;;;24.30;56.70;;;;;;5051047;28;20049;-71
2022/05/10 11:12:40;;;;;;;19.95;15.10;;;24.30;56.80;;;;;;5044467;28;20410;-72
2022/05/10 11:15:25;;;;;;;17.77;15.00;;;24.40;57.60;;;;;;5050004;28;20049;-72
2022/05/10 11:18:21;;;;;;;52.58;17.20;;;24.50;56.90;;;;;;5051355;28;20107;-71
2022/05/10 11:21:18;;;;;;;20.40;16.08;;;24.50;55.90;;;;;;5033368;28;20053;-72
2022/05/10 11:24:08;;;;;;;;;;;24.50;55.70;;;;;;5033994;28;20049;-72
2022/05/10 11:26:33;;;;;;;32.25;15.68;;;24.50;56.30;;;;;;5049550;28;19920;-72
2022/05/10 11:29:05;;;;;;;21.48;14.02;;;24.40;56.50;;;;;;5050555;28;20099;-70
2022/05/10 11:31:45;;;;;;;20.95;16.77;;;24.30;56.50;;;;;;5033217;28;20125;-72
2022/05/10 11:34:36;;;;;;;21.67;17.05;;;24.20;56.70;;;;;;5032274;28;20097;-71
2022/05/10 11:37:05;;;;;;;17.23;15.05;;;24.10;56.70;;;;;;5032620;28;20052;-72
2022/05/10 11:40:04;;;;;;;22.27;15.65;;;24.10;57.50;;;;;;5050861;28;20045;-72
2022/05/10 11:42:35;;;;;;;21.02;17.27;;;24.10;57.50;;;;;;5013304;28;20053;-72
2022/05/10 11:45:19;;;;;;;26.33;16.60;;;24.00;58.10;;;;;;5048523;28;20049;-72
2022/05/10 11:48:11;;;;;;;19.95;15.75;;;24.00;58.40;;;;;;5048287;28;20051;-71
2022/05/10 11:54:32;;;;;;;24.23;15.80;;;23.70;59.90;;;;;;4992425;28;20758;-72
2022/05/10 11:56:59;;;;;;;19.88;16.10;;;23.50;59.80;;;;;;5045627;28;20488;-71
2022/05/10 11:59:36;;;;;;;19.58;16.55;;;23.50;60.10;;;;;;5049035;28;20659;-71
2022/05/10 12:02:05;;;;;;;32.58;16.75;;;23.50;60.70;;;;;;5050316;28;20359;-70
2022/05/10 12:04:43;;;;;;;25.90;16.67;;;23.50;60.10;;;;;;5044431;28;20048;-71
2022/05/10 12:07:21;;;;;;;16.40;14.73;;;23.70;59.60;;;;;;5049167;28;20041;-70
2022/05/10 12:09:55;;;;;;;;;;;23.80;58.20;;;;;;5050358;28;20099;-71
2022/05/10 12:12:33;;;;;;;18.55;14.93;;;23.90;57.80;;;;;;5024837;28;19925;-71
2022/05/10 12:21:20;;;;;;;27.63;13.63;;;24.40;56.60;;;;;;5032105;28;20065;-70
2022/05/10 12:24:12;;;;;;;38.58;13.50;;;24.50;56.00;;;;;;5036972;28;20132;-71
2022/05/10 12:26:45;;;;;;;26.20;12.48;;;24.50;55.30;;;;;;5027704;28;20055;-70
2022/05/10 12:29:34;;;;;;;27.52;13.63;;;24.60;55.60;;;;;;5044416;28;20072;-71
2022/05/10 12:32:02;;;;;;;24.92;13.07;;;24.60;54.60;;;;;;5043589;28;20323;-71
2022/05/10 12:34:37;;;;;;;37.25;13.68;;;24.60;55.10;;;;;;5049799;28;20092;-71
2022/05/10 12:37:28;;;;;;;20.15;12.65;;;24.60;54.60;;;;;;5031519;28;20053;-71
2022/05/10 12:39:58;;;;;;;25.10;13.88;;;24.60;54.70;;;;;;5031792;28;20099;-71
2022/05/10 12:42:48;;;;;;;29.58;12.55;;;24.70;54.70;;;;;;5044716;28;20076;-70
2022/05/10 12:45:32;;;;;;;26.25;14.25;;;24.70;54.50;;;;;;5049200;28;20053;-71
2022/05/10 12:48:10;;;;;;;27.67;14.10;;;24.60;54.60;;;;;;5049501;28;20102;-70
2022/05/10 12:51:10;;;;;;;25.67;13.68;;;24.50;54.40;;;;;;5031845;28;20053;-71
2022/05/10 12:54:04;;;;;;;14.10;11.80;;;24.40;54.90;;;;;;5045198;28;20047;-70
2022/05/10 12:56:42;;;;;;;22.35;12.93;;;24.60;55.30;;;;;;5031432;28;20041;-72
2022/05/10 12:59:26;;;;;;;17.83;13.05;;;24.90;54.60;;;;;;5031906;28;20737;-71
2022/05/10 13:01:57;;;;;;;21.02;13.25;;;25.10;54.60;;;;;;5033637;28;20060;-70
2022/05/10 13:04:32;;;;;;;19.77;12.95;;;25.10;53.90;;;;;;5034537;28;20559;-71
2022/05/10 13:07:14;;;;;;;23.83;12.55;;;25.30;53.80;;;;;;5031774;28;20164;-70
2022/05/10 13:09:54;;;;;;;19.65;13.27;;;25.30;52.50;;;;;;5015101;28;20166;-71
2022/05/10 13:12:25;;;;;;;19.75;12.18;;;25.20;52.40;;;;;;5047941;28;20081;-71
2022/05/10 13:15:03;;;;;;;24.60;13.05;;;25.10;53.30;;;;;;5029069;28;20409;-70
2022/05/10 13:17:31;;;;;;;35.10;12.35;;;25.00;53.00;;;;;;5041608;28;20076;-70